Time;durP1;ratioP1;P1;durP2;ratioP2;P2;SDS_P1;SDS_P2;PMS_P1;PMS_P2;Temp;Humidity;BMP_temperature;BMP_pressure;BME280_temperature;BME280_humidity;BME280_pressure;Samples;Min_cycle;Max_cycle;Signal;HPM_P1;HPM_P2
2022/02/26 00:00:19;;;;;;;10.73;4.60;;;;;;;2.09;100.00;99487.34;5117450;28;20230;-71
2022/02/26 00:02:45;;;;;;;9.23;4.90;;;;;;;2.26;100.00;99480.13;5116924;28;20232;-71
2022/02/26 00:05:12;;;;;;;7.20;3.77;;;;;;;2.42;100.00;99481.63;5116972;28;20219;-70
2022/02/26 00:07:38;;;;;;;6.17;3.30;;;;;;;2.64;100.00;99488.22;5116473;28;20261;-70
2022/02/26 00:10:06;;;;;;;6.40;3.23;;;;;;;2.78;100.00;99485.38;5116768;28;20709;-70
2022/02/26 00:12:32;;;;;;;6.20;3.50;;;;;;;2.92;100.00;99489.47;5116694;28;20216;-70
2022/02/26 00:14:59;;;;;;;6.07;3.20;;;;;;;2.91;100.00;99492.13;5117228;28;20573;-70
2022/02/26 00:17:27;;;;;;;5.90;3.27;;;;;;;2.92;100.00;99494.72;5116887;28;20212;-69
2022/02/26 00:19:53;;;;;;;6.47;3.53;;;;;;;2.92;100.00;99492.09;5117261;28;20210;-70
2022/02/26 00:22:20;;;;;;;5.90;3.50;;;;;;;2.97;100.00;99495.50;5117034;28;20219;-68
2022/02/26 00:24:47;;;;;;;6.50;3.20;;;;;;;2.98;100.00;99505.03;5115514;28;20222;-71
2022/02/26 00:27:13;;;;;;;8.77;4.33;;;;;;;2.92;100.00;99494.72;5117014;28;20217;-68
2022/02/26 00:29:40;;;;;;;6.27;3.50;;;;;;;3.02;100.00;99501.50;5116430;28;20712;-69
2022/02/26 00:32:07;;;;;;;7.17;3.43;;;;;;;3.09;100.00;99505.72;5117047;28;20279;-69
2022/02/26 00:34:35;;;;;;;7.03;3.37;;;;;;;3.02;100.00;99500.63;5116645;28;20695;-68
2022/02/26 00:37:02;;;;;;;5.90;3.57;;;;;;;3.00;100.00;99503.25;5116814;28;20220;-68
2022/02/26 00:39:28;;;;;;;5.53;3.43;;;;;;;2.99;100.00;99512.00;5103776;28;20232;-68
2022/02/26 00:41:55;;;;;;;4.20;3.03;;;;;;;3.12;100.00;99500.44;5116885;28;20290;-68
2022/02/26 00:44:21;;;;;;;8.40;3.30;;;;;;;3.11;100.00;99511.78;5116664;28;20212;-68
2022/02/26 00:46:48;;;;;;;5.57;3.40;;;;;;;3.19;100.00;99515.09;5116242;28;20236;-68
2022/02/26 00:52:00;;;;;;;5.57;3.33;;;;;;;3.25;100.00;99522.81;5116499;28;20256;-68
2022/02/26 00:54:27;;;;;;;6.50;3.23;;;;;;;3.26;100.00;99536.75;5116295;28;20211;-68
2022/02/26 00:56:53;;;;;;;5.77;3.00;;;;;;;3.20;100.00;99537.75;5116185;28;20671;-68
2022/02/26 00:59:20;;;;;;;6.80;3.30;;;;;;;3.11;100.00;99540.50;5116451;28;20221;-69
2022/02/26 01:01:47;;;;;;;7.00;3.30;;;;;;;3.12;100.00;99537.00;5116163;28;20221;-69
2022/02/26 01:04:14;;;;;;;5.97;3.20;;;;;;;3.13;100.00;99546.56;5116058;28;20211;-68
2022/02/26 01:06:40;;;;;;;5.87;2.97;;;;;;;3.11;100.00;99540.50;5113607;28;20223;-68
2022/02/26 01:09:08;;;;;;;7.57;2.93;;;;;;;3.06;100.00;99539.72;5115746;28;20232;-69
2022/02/26 01:11:35;;;;;;;6.83;3.23;;;;;;;3.02;100.00;99545.91;5115887;28;20688;-68
2022/02/26 01:14:01;;;;;;;6.03;3.10;;;;;;;3.04;100.00;99551.94;5116175;28;20591;-69
2022/02/26 01:16:29;;;;;;;7.87;4.30;;;;;;;3.08;100.00;99553.63;5113973;28;20214;-69
2022/02/26 01:18:56;;;;;;;4.83;2.83;;;;;;;3.13;100.00;99543.94;5116056;28;20212;-69
2022/02/26 01:21:23;;;;;;;4.83;3.43;;;;;;;3.17;100.00;99558.69;5116173;28;20215;-68
2022/02/26 01:23:49;;;;;;;7.40;3.50;;;;;;;3.19;100.00;99561.28;5115876;28;20586;-68
2022/02/26 01:26:18;;;;;;;5.60;3.67;;;;;;;3.18;100.00;99554.34;5115185;28;20393;-69
2022/02/26 01:28:45;;;;;;;6.47;3.30;;;;;;;3.16;100.00;99562.19;5115946;28;20216;-68
2022/02/26 01:31:11;;;;;;;7.03;3.40;;;;;;;3.10;100.00;99551.84;5115536;28;20240;-68
2022/02/26 01:33:39;;;;;;;6.37;3.07;;;;;;;3.00;100.00;99555.50;5115720;28;20220;-68
2022/02/26 01:36:06;;;;;;;7.20;3.30;;;;;;;2.96;100.00;99553.84;5115277;28;20216;-69
2022/02/26 01:38:34;;;;;;;5.80;3.27;;;;;;;2.96;100.00;99561.69;5115630;28;20281;-69
2022/02/26 01:41:00;;;;;;;8.20;2.93;;;;;;;2.97;100.00;99560.78;5115053;28;20699;-69
2022/02/26 01:43:28;;;;;;;7.50;3.57;;;;;;;2.88;100.00;99553.09;5114319;28;20217;-69
2022/02/26 01:45:55;;;;;;;7.43;3.37;;;;;;;2.86;100.00;99557.47;5114982;28;21773;-68
2022/02/26 01:48:22;;;;;;;7.20;3.37;;;;;;;2.85;100.00;99560.97;5115310;28;20678;-69
2022/02/26 01:50:48;;;;;;;9.37;3.70;;;;;;;2.72;100.00;99558.56;5115470;28;20238;-68
2022/02/26 01:53:15;;;;;;;5.60;3.40;;;;;;;2.51;100.00;99559.75;5115433;28;20212;-68
2022/02/26 01:55:42;;;;;;;6.37;4.33;;;;;;;2.41;100.00;99558.19;5115335;28;20574;-68
2022/02/26 01:58:08;;;;;;;7.07;4.27;;;;;;;2.27;100.00;99567.09;5102042;28;20222;-69
2022/02/26 02:00:36;;;;;;;6.93;3.57;;;;;;;2.20;100.00;99553.25;5114780;28;20218;-68
2022/02/26 02:03:02;;;;;;;5.20;3.47;;;;;;;2.24;100.00;99565.38;5115357;28;20225;-69
2022/02/26 02:05:31;;;;;;;6.67;3.40;;;;;;;2.38;100.00;99573.88;5114877;28;20225;-69
2022/02/26 02:07:58;;;;;;;6.50;3.40;;;;;;;2.45;100.00;99557.25;5113394;28;20606;-68
2022/02/26 02:10:25;;;;;;;7.47;3.80;;;;;;;2.47;100.00;99563.31;5114578;28;20249;-68
2022/02/26 02:12:52;;;;;;;10.10;4.13;;;;;;;2.52;100.00;99556.25;5115197;28;20217;-68
2022/02/26 02:15:31;;;;;;;7.37;3.80;;;;;;;2.62;100.00;99564.81;5114812;28;20215;-69
2022/02/26 02:17:59;;;;;;;6.77;3.90;;;;;;;2.74;100.00;99562.91;5112282;28;20208;-69
2022/02/26 02:20:26;;;;;;;8.37;4.00;;;;;;;2.71;100.00;99562.97;5114713;28;20211;-68
2022/02/26 02:22:54;;;;;;;5.93;3.70;;;;;;;2.71;100.00;99568.19;5114592;28;20297;-69
2022/02/26 02:25:27;;;;;;;6.70;3.97;;;;;;;2.73;100.00;99565.53;5114917;28;20208;-69
2022/02/26 02:27:54;;;;;;;7.30;3.77;;;;;;;2.67;100.00;99560.38;5115212;28;20221;-68
2022/02/26 02:30:20;;;;;;;7.37;3.83;;;;;;;2.68;100.00;99567.31;5114448;28;20296;-68
2022/02/26 02:32:47;;;;;;;7.93;4.10;;;;;;;2.63;100.00;99566.56;5114716;28;20565;-68
2022/02/26 02:35:24;;;;;;;8.23;3.70;;;;;;;2.56;100.00;99564.94;5112839;28;20588;-69
2022/02/26 02:37:50;;;;;;;10.70;4.30;;;;;;;2.45;100.00;99565.06;5114554;28;20223;-69
2022/02/26 02:40:18;;;;;;;9.23;4.30;;;;;;;2.40;100.00;99560.81;5114640;28;20234;-68
2022/02/26 02:42:45;;;;;;;7.73;4.07;;;;;;;2.35;100.00;99576.53;5114521;28;20214;-68
2022/02/26 02:45:11;;;;;;;6.73;3.90;;;;;;;2.33;100.00;99577.44;5114439;28;20645;-69
2022/02/26 02:47:38;;;;;;;7.83;4.40;;;;;;;2.49;100.00;99581.53;5114109;28;20210;-69
2022/02/26 02:50:05;;;;;;;5.87;4.40;;;;;;;2.58;100.00;99570.97;5114270;28;20248;-68
2022/02/26 02:52:32;;;;;;;12.27;4.63;;;;;;;2.51;100.00;99587.63;5114145;28;20221;-69
2022/02/26 02:54:58;;;;;;;7.70;4.40;;;;;;;2.51;100.00;99582.41;5113796;28;20695;-69
2022/02/26 02:57:26;;;;;;;7.60;3.97;;;;;;;2.53;100.00;99588.44;5114089;28;20214;-69
2022/02/26 02:59:53;;;;;;;7.67;3.87;;;;;;;2.52;100.00;99587.56;5112423;28;20214;-68
2022/02/26 03:02:20;;;;;;;8.90;4.37;;;;;;;2.48;100.00;99585.91;5114157;28;20241;-68
2022/02/26 03:04:46;;;;;;;9.20;4.57;;;;;;;2.47;100.00;99589.41;5113750;28;20212;-68
2022/02/26 03:07:13;;;;;;;6.97;3.80;;;;;;;2.47;100.00;99594.63;5113997;28;20222;-68
2022/02/26 03:09:39;;;;;;;8.87;4.80;;;;;;;2.51;100.00;99598.91;5113561;28;20234;-68
2022/02/26 03:12:07;;;;;;;5.93;4.60;;;;;;;2.38;100.00;99594.75;5113665;28;20218;-68
2022/02/26 03:14:35;;;;;;;4.97;4.17;;;;;;;2.34;100.00;99600.03;5113705;28;20674;-68
2022/02/26 03:17:01;;;;;;;9.77;5.43;;;;;;;2.14;100.00;99595.06;5113441;28;20210;-68
2022/02/26 03:19:28;;;;;;;9.27;4.30;;;;;;;2.17;100.00;99602.88;5113619;28;20235;-68
2022/02/26 03:21:54;;;;;;;8.77;4.70;;;;;;;2.18;100.00;99604.59;5113749;28;20216;-68
2022/02/26 03:24:20;;;;;;;8.80;4.80;;;;;;;2.18;100.00;99612.41;5111109;28;20239;-68
2022/02/26 03:26:53;;;;;;;9.03;4.70;;;;;;;2.18;100.00;99606.31;5111689;28;20703;-68
2022/02/26 03:29:20;;;;;;;7.97;4.70;;;;;;;2.22;100.00;99606.28;5112747;28;20220;-68
2022/02/26 03:31:47;;;;;;;9.60;4.87;;;;;;;2.30;100.00;99609.66;5113245;28;20245;-68
2022/02/26 03:34:14;;;;;;;8.97;5.27;;;;;;;2.34;100.00;99619.13;5113214;28;20215;-68
2022/02/26 03:36:40;;;;;;;8.10;4.97;;;;;;;2.27;100.00;99622.72;5113383;28;20226;-68
2022/02/26 03:39:07;;;;;;;8.47;4.60;;;;;;;2.35;100.00;99618.28;5113592;28;20223;-68
2022/02/26 03:41:34;;;;;;;8.97;5.00;;;;;;;2.29;100.00;99622.69;5113530;28;20275;-68
2022/02/26 03:44:00;;;;;;;11.80;5.33;;;;;;;2.27;100.00;99621.88;5113543;28;20214;-68
2022/02/26 03:46:27;;;;;;;9.73;5.30;;;;;;;2.27;100.00;99619.25;5113457;28;20230;-69
2022/02/26 03:48:55;;;;;;;10.17;5.17;;;;;;;2.20;100.00;99618.47;5113513;28;20225;-68
2022/02/26 03:51:22;;;;;;;10.87;5.33;;;;;;;2.25;100.00;99623.63;5112430;28;20241;-69
2022/02/26 03:53:48;;;;;;;9.73;5.97;;;;;;;2.16;100.00;99619.41;5112805;28;20233;-68
2022/02/26 03:56:15;;;;;;;10.23;5.47;;;;;;;2.21;100.00;99621.94;5113448;28;20216;-68
2022/02/26 03:58:41;;;;;;;9.70;5.17;;;;;;;2.31;100.00;99629.63;5113285;28;20206;-68
2022/02/26 04:01:08;;;;;;;9.40;5.97;;;;;;;2.29;100.00;99626.19;5113183;28;20214;-68
2022/02/26 04:03:34;;;;;;;9.97;5.60;;;;;;;2.16;100.00;99629.84;5112545;28;20212;-68
2022/02/26 04:06:02;;;;;;;7.73;5.30;;;;;;;2.07;100.00;99629.06;5113321;28;20218;-68
2022/02/26 04:08:30;;;;;;;10.70;5.60;;;;;;;2.04;100.00;99634.31;5112946;28;20677;-68
2022/02/26 04:10:57;;;;;;;13.53;6.17;;;;;;;2.01;100.00;99640.44;5112926;28;20664;-68
2022/02/26 04:13:23;;;;;;;9.93;5.87;;;;;;;1.95;100.00;99643.09;5113229;28;20222;-68
2022/02/26 04:15:49;;;;;;;9.43;5.63;;;;;;;1.93;100.00;99637.06;5113235;28;20227;-68
2022/02/26 04:18:16;;;;;;;13.97;5.80;;;;;;;1.89;100.00;99640.56;5111514;28;20216;-68
2022/02/26 04:20:42;;;;;;;12.13;5.80;;;;;;;1.89;100.00;99635.34;5113006;28;20211;-68
2022/02/26 04:23:10;;;;;;;10.17;5.93;;;;;;;1.88;100.00;99644.06;5112741;28;20677;-68
2022/02/26 04:25:37;;;;;;;12.30;5.93;;;;;;;1.90;100.00;99637.06;5112927;28;20210;-68
2022/02/26 04:28:04;;;;;;;10.93;6.10;;;;;;;2.00;100.00;99654.34;5113119;28;20225;-68
2022/02/26 04:30:31;;;;;;;11.67;6.10;;;;;;;2.03;100.00;99662.13;5113114;28;20233;-68
2022/02/26 04:32:57;;;;;;;13.53;6.60;;;;;;;1.97;100.00;99651.75;5112719;28;20703;-69
2022/02/26 04:35:24;;;;;;;9.43;5.80;;;;;;;2.14;100.00;99655.06;5112981;28;20212;-69
2022/02/26 04:37:50;;;;;;;11.37;5.77;;;;;;;2.15;100.00;99653.31;5112728;28;20212;-69
2022/02/26 04:40:19;;;;;;;12.67;6.30;;;;;;;2.14;100.00;99662.88;5114222;28;20233;-69
2022/02/26 04:42:45;;;;;;;12.07;6.03;;;;;;;2.14;100.00;99657.66;5116471;28;20302;-69
2022/02/26 04:45:13;;;;;;;14.50;6.23;;;;;;;2.08;100.00;99660.34;5115092;28;20213;-69
2022/02/26 04:47:41;;;;;;;14.40;6.50;;;;;;;2.10;100.00;99655.97;5116764;28;20613;-68
2022/02/26 04:50:10;;;;;;;13.10;6.00;;;;;;;2.13;100.00;99655.06;5116710;28;20215;-68
2022/02/26 04:52:37;;;;;;;12.17;6.23;;;;;;;2.03;100.00;99664.72;5116345;28;20208;-68
2022/02/26 04:55:04;;;;;;;11.30;6.23;;;;;;;2.03;100.00;99661.28;5116347;28;20212;-69
2022/02/26 04:57:32;;;;;;;12.23;6.60;;;;;;;2.08;100.00;99665.53;5116509;28;20671;-68
2022/02/26 04:59:59;;;;;;;10.63;6.23;;;;;;;2.17;100.00;99661.97;5116707;28;20208;-69
2022/02/26 05:02:25;;;;;;;15.03;6.73;;;;;;;2.16;100.00;99671.56;5116505;28;20214;-70
2022/02/26 05:04:52;;;;;;;11.00;6.00;;;;;;;2.16;100.00;99671.56;5116409;28;20214;-69
2022/02/26 05:07:19;;;;;;;12.00;6.10;;;;;;;2.19;100.00;99663.69;5116165;28;20208;-69
2022/02/26 05:09:46;;;;;;;13.33;6.70;;;;;;;2.10;100.00;99675.97;5114081;28;20238;-70
2022/02/26 05:12:12;;;;;;;11.03;6.27;;;;;;;2.10;100.00;99676.84;5116333;28;20231;-68
2022/02/26 05:14:40;;;;;;;11.33;6.60;;;;;;;2.08;100.00;99678.59;5116009;28;20217;-67
2022/02/26 05:17:06;;;;;;;12.50;6.13;;;;;;;2.01;100.00;99670.84;5115857;28;20699;-69
2022/02/26 05:19:33;;;;;;;12.33;6.10;;;;;;;2.06;100.00;99672.53;5116133;28;20210;-69
2022/02/26 05:22:00;;;;;;;14.43;7.00;;;;;;;2.03;100.00;99685.59;5116085;28;20592;-69
2022/02/26 05:24:26;;;;;;;14.63;7.30;;;;;;;2.03;100.00;99684.75;5116026;28;20221;-69
2022/02/26 05:26:53;;;;;;;11.03;6.17;;;;;;;2.06;100.00;99687.31;5115873;28;20215;-68
2022/02/26 05:29:20;;;;;;;15.27;6.80;;;;;;;2.07;100.00;99689.91;5115693;28;20214;-68
2022/02/26 05:31:48;;;;;;;10.93;6.30;;;;;;;2.08;100.00;99690.78;5113336;28;20239;-69
2022/02/26 05:34:15;;;;;;;9.73;6.17;;;;;;;2.10;100.00;99684.66;5115539;28;20221;-69
2022/02/26 05:36:41;;;;;;;12.40;7.20;;;;;;;2.00;100.00;99692.59;5114123;28;20229;-70
2022/02/26 05:39:09;;;;;;;11.80;7.00;;;;;;;2.02;100.00;99699.50;5115489;28;20225;-70
2022/02/26 05:41:36;;;;;;;13.93;7.20;;;;;;;2.00;100.00;99690.84;5115310;28;20247;-68
2022/02/26 05:44:02;;;;;;;11.07;6.90;;;;;;;2.10;100.00;99702.94;5115538;28;20218;-70
2022/02/26 05:46:29;;;;;;;11.80;7.03;;;;;;;2.05;100.00;99703.84;5115615;28;20214;-68
2022/02/26 05:48:57;;;;;;;11.43;6.40;;;;;;;2.07;100.00;99710.78;5115792;28;20210;-68
2022/02/26 05:51:23;;;;;;;10.43;7.00;;;;;;;2.17;100.00;99704.59;5114197;28;20242;-69
2022/02/26 05:53:50;;;;;;;13.67;7.60;;;;;;;2.13;100.00;99713.31;5115230;28;20214;-69
2022/02/26 05:56:16;;;;;;;12.20;7.10;;;;;;;2.06;100.00;99711.66;5115164;28;20214;-69
2022/02/26 05:58:43;;;;;;;13.57;6.60;;;;;;;2.09;100.00;99715.97;5115324;28;20219;-68
2022/02/26 06:01:09;;;;;;;13.27;7.67;;;;;;;2.11;100.00;99722.91;5115195;28;20601;-69
2022/02/26 06:03:36;;;;;;;14.20;7.13;;;;;;;2.20;100.00;99730.63;5113466;28;20225;-68
2022/02/26 06:06:04;;;;;;;11.50;7.37;;;;;;;2.16;100.00;99728.94;5115216;28;20217;-69
2022/02/26 06:08:30;;;;;;;12.70;7.03;;;;;;;2.21;100.00;99736.72;5115165;28;20214;-68
2022/02/26 06:10:57;;;;;;;12.90;7.47;;;;;;;2.30;100.00;99742.69;5114840;28;20264;-68
2022/02/26 06:13:24;;;;;;;14.07;7.53;;;;;;;2.28;100.00;99738.38;5114286;28;20683;-68
2022/02/26 06:15:51;;;;;;;14.57;6.87;;;;;;;2.35;100.00;99750.47;5114652;28;20690;-69
2022/02/26 06:18:17;;;;;;;12.43;7.10;;;;;;;2.34;100.00;99749.59;5114938;28;20209;-70
2022/02/26 06:20:44;;;;;;;13.40;7.70;;;;;;;2.35;100.00;99750.47;5114530;28;20216;-69
2022/02/26 06:23:12;;;;;;;13.73;7.17;;;;;;;2.41;100.00;99748.66;5114779;28;20213;-69
2022/02/26 06:25:38;;;;;;;14.27;7.90;;;;;;;2.41;100.00;99751.28;5114517;28;20223;-69
2022/02/26 06:28:05;;;;;;;14.13;7.10;;;;;;;2.42;100.00;99747.78;5113061;28;20228;-69
2022/02/26 06:30:32;;;;;;;14.20;7.23;;;;;;;2.32;100.00;99755.72;5114356;28;20698;-69
2022/02/26 06:32:58;;;;;;;11.30;6.77;;;;;;;2.29;100.00;99756.63;5114433;28;20224;-69
2022/02/26 06:35:24;;;;;;;12.07;6.80;;;;;;;2.29;100.00;99772.28;5114744;28;20206;-70
2022/02/26 06:37:51;;;;;;;12.67;6.90;;;;;;;2.27;100.00;99770.56;5114290;28;20693;-68
2022/02/26 06:40:19;;;;;;;16.23;7.00;;;;;;;2.23;100.00;99782.78;5112979;28;20218;-70
2022/02/26 06:42:46;;;;;;;11.03;6.80;;;;;;;2.19;100.00;99781.06;5111820;28;20665;-67
2022/02/26 06:45:12;;;;;;;11.60;6.63;;;;;;;2.26;100.00;99782.72;5114115;28;20216;-67
2022/02/26 06:47:39;;;;;;;10.27;6.70;;;;;;;2.34;100.00;99786.09;5114181;28;20217;-68
2022/02/26 06:50:07;;;;;;;14.73;7.70;;;;;;;2.43;100.00;99793.84;5114277;28;20568;-68
2022/02/26 06:52:33;;;;;;;11.33;7.03;;;;;;;2.50;100.00;99798.13;5113961;28;20241;-68
2022/02/26 06:55:00;;;;;;;9.07;6.83;;;;;;;2.58;100.00;99796.28;5112520;28;20223;-68
2022/02/26 06:57:27;;;;;;;12.77;7.17;;;;;;;2.67;100.00;99792.72;5114334;28;20584;-68
2022/02/26 06:59:54;;;;;;;14.87;7.60;;;;;;;2.71;100.00;99797.91;5114236;28;20218;-68
2022/02/26 07:02:20;;;;;;;11.70;7.53;;;;;;;2.87;100.00;99798.56;5113969;28;20213;-67
2022/02/26 07:04:47;;;;;;;14.10;6.97;;;;;;;3.00;100.00;99802.75;5114181;28;20216;-68
2022/02/26 07:07:13;;;;;;;15.63;8.83;;;;;;;2.96;100.00;99799.31;5114243;28;20215;-68
2022/02/26 07:09:41;;;;;;;11.60;6.60;;;;;;;3.08;100.00;99808.75;5113801;28;20691;-67
2022/02/26 07:12:08;;;;;;;11.50;6.83;;;;;;;3.13;100.00;99807.78;5113883;28;20323;-67
2022/02/26 07:14:37;;;;;;;12.53;6.87;;;;;;;3.22;100.00;99805.06;5113406;28;20215;-67
2022/02/26 07:17:03;;;;;;;13.80;6.83;;;;;;;3.31;100.00;99811.91;5113902;28;20219;-67
2022/02/26 07:19:30;;;;;;;16.17;7.53;;;;;;;3.38;100.00;99819.66;5112572;28;20207;-67
2022/02/26 07:21:57;;;;;;;11.73;5.70;;;;;;;3.47;100.00;99814.28;5113327;28;20233;-67
2022/02/26 07:24:23;;;;;;;13.37;6.63;;;;;;;3.51;100.00;99810.75;5113644;28;20219;-68
2022/02/26 07:26:50;;;;;;;12.30;6.27;;;;;;;3.62;100.00;99813.19;5113978;28;20208;-68
2022/02/26 07:29:16;;;;;;;12.60;6.90;;;;;;;3.67;100.00;99814.00;5113872;28;20216;-67
2022/02/26 07:31:44;;;;;;;9.93;6.73;;;;;;;3.69;100.00;99826.16;5113457;28;20235;-66
2022/02/26 07:34:10;;;;;;;9.83;6.80;;;;;;;3.74;100.00;99829.56;5113577;28;20223;-67
2022/02/26 07:36:37;;;;;;;11.40;6.23;;;;;;;3.83;100.00;99832.03;5113665;28;20207;-67
2022/02/26 07:39:05;;;;;;;9.27;6.53;;;;;;;3.85;100.00;99827.63;5113456;28;20730;-67
2022/02/26 07:41:32;;;;;;;13.50;6.57;;;;;;;3.91;100.00;99835.38;5113473;28;20220;-67
2022/02/26 07:43:58;;;;;;;11.80;6.80;;;;;;;3.96;100.00;99830.94;5113205;28;20225;-67
2022/02/26 07:46:25;;;;;;;10.50;6.70;;;;;;;3.96;100.00;99836.19;5111869;28;20233;-67
2022/02/26 07:48:53;;;;;;;10.37;6.90;;;;;;;3.99;100.00;99835.28;5113571;28;20210;-67
2022/02/26 07:51:19;;;;;;;15.70;7.07;;;;;;;4.03;100.00;99840.44;5113336;28;20236;-67
2022/02/26 07:53:46;;;;;;;11.90;7.03;;;;;;;4.08;100.00;99849.06;5110737;28;20222;-67
2022/02/26 07:56:13;;;;;;;11.53;6.43;;;;;;;4.17;100.00;99851.53;5113555;28;20223;-67
2022/02/26 07:58:39;;;;;;;12.30;7.33;;;;;;;4.27;100.00;99847.88;5113213;28;20220;-67
2022/02/26 08:01:06;;;;;;;17.30;7.77;;;;;;;4.35;100.00;99853.81;5113451;28;20224;-69
2022/02/26 08:03:32;;;;;;;11.73;7.53;;;;;;;4.45;100.00;99857.19;5113314;28;20224;-68
2022/02/26 08:06:00;;;;;;;14.07;7.63;;;;;;;4.51;100.00;99865.78;5113263;28;20225;-68
2022/02/26 08:08:27;;;;;;;13.40;7.50;;;;;;;4.49;99.99;99857.09;5113280;28;20303;-68
2022/02/26 08:10:53;;;;;;;12.13;7.47;;;;;;;4.50;98.79;99861.44;5113237;28;20251;-68
2022/02/26 08:13:20;;;;;;;12.50;6.93;;;;;;;4.59;98.65;99861.25;5110734;28;20236;-67
2022/02/26 08:15:46;;;;;;;12.53;7.07;;;;;;;4.65;98.34;99866.38;5115704;28;20212;-67
2022/02/26 08:18:13;;;;;;;14.07;7.90;;;;;;;4.71;98.10;99874.13;5116934;28;20223;-67
2022/02/26 08:20:39;;;;;;;12.77;7.30;;;;;;;4.73;96.88;99867.13;5116984;28;20248;-67
2022/02/26 08:23:07;;;;;;;12.93;7.47;;;;;;;4.72;96.26;99868.03;5117237;28;20235;-67
2022/02/26 08:25:34;;;;;;;11.93;7.73;;;;;;;4.77;95.52;99868.78;5104233;28;20231;-68
2022/02/26 08:28:01;;;;;;;10.87;7.03;;;;;;;4.77;94.53;99853.06;5116945;28;20212;-68
2022/02/26 08:30:27;;;;;;;12.60;7.13;;;;;;;4.63;95.62;99855.06;5116842;28;20216;-67
2022/02/26 08:32:54;;;;;;;16.07;8.17;;;;;;;4.59;96.10;99865.66;5116907;28;20243;-67
2022/02/26 08:35:21;;;;;;;14.47;7.47;;;;;;;4.52;95.71;99870.13;5115146;28;20212;-67
2022/02/26 08:37:48;;;;;;;11.43;7.07;;;;;;;4.65;95.94;99860.31;5113703;28;20222;-68
2022/02/26 08:40:17;;;;;;;12.43;7.53;;;;;;;4.77;94.84;99867.94;5115350;28;20675;-67
2022/02/26 08:42:44;;;;;;;10.50;7.53;;;;;;;4.76;93.70;99864.44;5115372;28;20588;-67
2022/02/26 08:45:12;;;;;;;11.03;6.90;;;;;;;4.89;92.45;99867.69;5115400;28;20584;-67
2022/02/26 08:47:39;;;;;;;10.40;7.23;;;;;;;5.12;92.24;99868.97;5115561;28;20221;-67
2022/02/26 08:50:09;;;;;;;10.63;7.10;;;;;;;5.30;90.46;99860.72;5115476;28;20212;-67
2022/02/26 08:52:36;;;;;;;12.07;7.10;;;;;;;5.38;92.08;99869.28;5114959;28;20925;-67
2022/02/26 08:55:03;;;;;;;11.80;7.20;;;;;;;5.39;91.79;99867.53;5115366;28;20206;-67
2022/02/26 08:57:31;;;;;;;12.67;6.83;;;;;;;5.45;91.22;99873.50;5115290;28;20253;-67
2022/02/26 08:59:58;;;;;;;11.63;7.37;;;;;;;5.59;90.96;99866.22;5115343;28;20220;-67
2022/02/26 09:02:25;;;;;;;13.00;7.90;;;;;;;5.57;91.50;99857.50;5114852;28;20217;-67
2022/02/26 09:04:52;;;;;;;12.50;7.30;;;;;;;5.55;91.23;99855.84;5113450;28;20223;-67
2022/02/26 09:07:18;;;;;;;13.23;8.83;;;;;;;5.60;92.74;99861.81;5114999;28;20217;-67
2022/02/26 09:09:45;;;;;;;11.43;6.80;;;;;;;5.61;88.95;99869.66;5114932;28;20236;-67
2022/02/26 09:12:11;;;;;;;11.37;7.07;;;;;;;5.59;87.35;99866.22;5114584;28;20236;-67
2022/02/26 09:14:39;;;;;;;15.00;7.73;;;;;;;5.69;89.22;99867.72;5114911;28;20300;-66
2022/02/26 09:17:06;;;;;;;11.57;7.40;;;;;;;5.76;89.50;99858.84;5114469;28;20221;-66
2022/02/26 09:19:32;;;;;;;11.50;6.67;;;;;;;5.71;89.33;99854.56;5114886;28;20229;-67
2022/02/26 09:22:03;;;;;;;12.33;7.77;;;;;;;5.74;87.61;99851.91;5114736;28;20230;-67
2022/02/26 09:24:29;;;;;;;13.10;8.00;;;;;;;5.84;86.82;99862.19;5114793;28;20217;-67
2022/02/26 09:26:56;;;;;;;10.60;6.87;;;;;;;5.77;85.98;99857.94;5113330;28;20228;-68
2022/02/26 09:29:22;;;;;;;12.87;8.83;;;;;;;5.84;91.64;99856.94;5114755;28;20214;-68
2022/02/26 09:31:50;;;;;;;11.67;7.30;;;;;;;5.65;90.38;99862.59;5112549;28;20237;-67
2022/02/26 09:34:17;;;;;;;13.43;6.67;;;;;;;5.50;89.54;99869.03;5114382;28;20676;-67
2022/02/26 09:36:45;;;;;;;13.30;7.00;;;;;;;5.63;87.29;99867.84;5114587;28;20236;-68
2022/02/26 09:39:11;;;;;;;13.33;7.20;;;;;;;5.70;86.75;99858.09;5114118;28;20814;-68
2022/02/26 09:41:38;;;;;;;9.80;5.47;;;;;;;5.97;84.76;99863.63;5114475;28;20236;-67
2022/02/26 09:44:06;;;;;;;10.37;5.50;;;;;;;6.10;81.75;99857.16;5114327;28;20214;-67
2022/02/26 09:46:32;;;;;;;9.80;4.70;;;;;;;6.29;79.41;99862.84;5114028;28;20663;-67
2022/02/26 09:49:00;;;;;;;8.57;4.50;;;;;;;6.34;74.60;99859.19;5114372;28;20219;-67
2022/02/26 09:51:29;;;;;;;10.03;5.47;;;;;;;6.41;73.73;99859.91;5114096;28;20210;-68
2022/02/26 09:53:56;;;;;;;11.33;5.70;;;;;;;6.43;73.47;99860.72;5114221;28;20940;-68
2022/02/26 09:56:23;;;;;;;8.97;5.33;;;;;;;6.43;75.66;99869.50;5114154;28;20218;-68
2022/02/26 09:58:50;;;;;;;8.67;5.40;;;;;;;6.31;75.19;99867.16;5112568;28;20214;-68
2022/02/26 10:01:16;;;;;;;7.97;3.57;;;;;;;6.24;70.50;99868.19;5114034;28;20221;-68
2022/02/26 10:03:43;;;;;;;11.50;4.97;;;;;;;6.17;75.58;99866.63;5113660;28;20683;-68
2022/02/26 10:06:13;;;;;;;9.43;5.53;;;;;;;6.15;74.47;99868.44;5113744;28;21228;-67
2022/02/26 10:08:41;;;;;;;10.70;4.50;;;;;;;6.06;70.15;99867.78;5114001;28;20223;-67
2022/02/26 10:11:21;;;;;;;8.57;3.90;;;;;;;5.99;71.54;99867.06;5114025;28;20245;-67
2022/02/26 10:13:47;;;;;;;5.80;2.43;;;;;;;5.94;69.05;99874.19;5101448;28;20324;-67
2022/02/26 10:16:14;;;;;;;6.63;2.87;;;;;;;5.90;67.69;99866.41;5113715;28;20204;-67
2022/02/26 10:18:51;;;;;;;8.20;3.57;;;;;;;5.93;67.89;99869.81;5113463;28;20220;-68
2022/02/26 10:21:30;;;;;;;6.23;2.90;;;;;;;6.06;67.23;99868.66;5111347;28;20214;-67
2022/02/26 10:23:56;;;;;;;4.93;2.67;;;;;;;6.15;69.15;99868.44;5111924;28;20210;-67
2022/02/26 10:26:25;;;;;;;7.07;2.13;;;;;;;6.07;65.69;99864.25;5113579;28;20210;-69
2022/02/26 10:28:52;;;;;;;5.37;2.30;;;;;;;5.86;65.55;99873.50;5113399;28;20228;-68
2022/02/26 10:31:18;;;;;;;5.20;1.63;;;;;;;5.86;58.15;99863.00;5113343;28;20221;-68
2022/02/26 10:33:45;;;;;;;5.93;1.90;;;;;;;5.89;59.94;99865.56;5112967;28;20702;-69
2022/02/26 10:36:11;;;;;;;7.37;2.13;;;;;;;6.21;57.70;99873.53;5113208;28;20211;-70
2022/02/26 10:38:39;;;;;;;5.03;1.90;;;;;;;6.37;61.43;99864.38;5112571;28;20218;-68
2022/02/26 10:41:07;;;;;;;7.20;1.97;;;;;;;6.52;57.48;99857.84;5112946;28;20210;-68
2022/02/26 10:43:43;;;;;;;6.60;2.10;;;;;;;6.48;55.00;99857.06;5113157;28;20214;-68
2022/02/26 10:46:31;;;;;;;5.37;2.20;;;;;;;6.34;53.75;99853.94;5113102;28;20210;-69
2022/02/26 10:49:00;;;;;;;5.93;2.00;;;;;;;6.21;55.40;99852.53;5106809;28;20210;-69
2022/02/26 10:51:29;;;;;;;3.13;1.97;;;;;;;6.23;55.05;99832.34;5111410;28;20592;-69
2022/02/26 10:53:57;;;;;;;5.63;2.47;;;;;;;6.40;55.56;99847.69;5112974;28;20241;-68
2022/02/26 10:56:32;;;;;;;7.37;2.80;;;;;;;6.70;60.03;99841.59;5112671;28;20210;-70
2022/02/26 10:58:58;;;;;;;7.87;2.87;;;;;;;6.88;60.14;99846.38;5099971;28;20213;-67
2022/02/26 11:01:25;;;;;;;4.33;1.90;;;;;;;7.32;59.06;99844.22;5112853;28;20218;-67
2022/02/26 11:03:55;;;;;;;6.03;1.87;;;;;;;7.64;56.63;99837.09;5112605;28;20690;-68
2022/02/26 11:06:22;;;;;;;8.67;2.47;;;;;;;7.90;58.84;99839.78;5112834;28;20256;-68
2022/02/26 11:08:50;;;;;;;5.73;2.20;;;;;;;7.94;56.04;99841.41;5099784;28;20221;-68
2022/02/26 11:11:18;;;;;;;3.23;2.10;;;;;;;8.02;52.97;99843.81;5112772;28;20235;-68
2022/02/26 11:13:46;;;;;;;3.27;1.80;;;;;;;7.96;52.86;99852.75;5112391;28;20233;-68
2022/02/26 11:16:14;;;;;;;7.63;2.30;;;;;;;7.66;51.59;99842.31;5112258;28;20207;-68
2022/02/26 11:18:43;;;;;;;4.87;1.97;;;;;;;7.43;52.70;99847.41;5098549;28;20253;-68
2022/02/26 11:21:11;;;;;;;6.73;2.10;;;;;;;7.11;49.72;99846.59;5112250;28;20672;-68
2022/02/26 11:23:38;;;;;;;3.47;1.57;;;;;;;6.71;50.83;99849.47;5112268;28;20226;-68
2022/02/26 11:26:07;;;;;;;4.33;2.00;;;;;;;6.74;52.03;99844.13;5111612;28;20258;-68
2022/02/26 11:28:36;;;;;;;5.20;1.60;;;;;;;6.91;53.34;99841.03;5112373;28;20218;-68
2022/02/26 11:31:07;;;;;;;3.53;1.90;;;;;;;7.17;56.19;99847.31;5112358;28;20220;-68
2022/02/26 11:33:35;;;;;;;5.00;1.63;;;;;;;7.53;55.21;99833.06;5112151;28;20268;-68